Time;durP1;ratioP1;P1;durP2;ratioP2;P2;SDS_P1;SDS_P2;PMS_P1;PMS_P2;Temp;Humidity;BMP_temperature;BMP_pressure;BME280_temperature;BME280_humidity;BME280_pressure;Samples;Min_cycle;Max_cycle;Signal;HPM_P1;HPM_P2
2022/05/13 00:00:57;;;;;;;3.38;2.17;;;17.10;97.10;;;;;;4994345;28;20296;-72
2022/05/13 00:03:25;;;;;;;2.50;1.70;;;17.10;97.30;;;;;;4994729;28;20285;-71
2022/05/13 00:05:53;;;;;;;2.78;1.85;;;17.10;97.70;;;;;;4993458;28;20601;-72
2022/05/13 00:08:21;;;;;;;2.03;1.73;;;17.00;97.30;;;;;;4994474;28;20293;-72
2022/05/13 00:10:49;;;;;;;5.25;2.10;;;16.80;97.20;;;;;;4995668;28;20230;-73
2022/05/13 00:13:18;;;;;;;3.97;2.50;;;16.70;98.00;;;;;;4993702;28;20284;-71
2022/05/13 00:15:46;;;;;;;3.25;1.90;;;16.70;97.90;;;;;;4999939;28;20314;-72
2022/05/13 00:18:14;;;;;;;4.30;2.00;;;16.50;98.30;;;;;;4995374;28;20198;-72
2022/05/13 00:20:42;;;;;;;4.30;2.38;;;16.40;98.50;;;;;;4980878;28;20269;-73
2022/05/13 00:23:11;;;;;;;3.22;2.13;;;16.40;99.20;;;;;;4987021;28;20305;-73
2022/05/13 00:25:41;;;;;;;2.42;1.92;;;16.50;99.90;;;;;;4997162;28;20262;-74
2022/05/13 00:28:10;;;;;;;4.93;2.58;;;16.50;98.90;;;;;;4996911;28;20232;-73
2022/05/13 00:30:43;;;;;;;3.78;2.50;;;16.40;99.70;;;;;;4996576;28;20652;-73
2022/05/13 00:33:11;;;;;;;3.60;2.10;;;16.40;99.90;;;;;;4989318;28;20206;-73
2022/05/13 00:35:40;;;;;;;3.28;2.55;;;16.40;99.90;;;;;;4996894;28;20296;-72
2022/05/13 00:38:08;;;;;;;3.20;2.35;;;16.50;99.90;;;;;;4994002;28;20615;-72
2022/05/13 00:40:36;;;;;;;3.35;1.83;;;16.50;99.90;;;;;;4996806;28;20201;-72
2022/05/13 00:43:06;;;;;;;4.00;2.38;;;16.40;99.90;;;;;;4996579;28;20624;-72
2022/05/13 00:45:35;;;;;;;3.85;2.20;;;16.30;99.90;;;;;;4995849;28;20226;-70
2022/05/13 00:48:04;;;;;;;3.05;2.00;;;16.20;99.90;;;;;;4993671;28;20616;-71
2022/05/13 00:50:36;;;;;;;2.25;2.03;;;16.20;99.90;;;;;;4988580;28;20206;-71
2022/05/13 00:53:09;;;;;;;2.38;1.98;;;16.10;99.90;;;;;;4990908;28;20202;-73
2022/05/13 00:55:41;;;;;;;3.85;2.17;;;16.10;99.90;;;;;;4991166;28;20246;-71
2022/05/13 00:58:15;;;;;;;3.30;2.47;;;16.10;99.90;;;;;;4991237;28;20667;-71
2022/05/13 01:00:43;;;;;;;2.55;2.35;;;16.10;99.90;;;;;;4991818;28;20241;-73
2022/05/13 01:03:13;;;;;;;2.13;2.03;;;16.00;99.90;;;;;;4996687;28;20205;-74
2022/05/13 01:05:43;;;;;;;4.82;2.30;;;16.00;99.90;;;;;;4992154;28;20571;-73
2022/05/13 01:08:12;;;;;;;7.57;3.58;;;16.00;99.90;;;;;;4992059;28;20206;-72
2022/05/13 01:10:43;;;;;;;7.68;2.08;;;16.00;99.90;;;;;;4992335;28;20233;-72
2022/05/13 01:13:16;;;;;;;4.10;2.55;;;16.00;99.90;;;;;;4996820;28;20229;-71
2022/05/13 01:15:45;;;;;;;3.58;2.30;;;16.10;99.90;;;;;;4996758;28;20641;-72
2022/05/13 01:18:23;;;;;;;4.78;2.50;;;16.10;99.90;;;;;;4993756;28;20216;-71
2022/05/13 01:20:51;;;;;;;3.35;2.33;;;16.00;99.90;;;;;;4983066;28;20205;-72
2022/05/13 01:23:23;;;;;;;3.53;2.55;;;15.90;99.90;;;;;;4990325;28;20719;-71
2022/05/13 01:25:54;;;;;;;4.00;2.90;;;15.80;99.90;;;;;;4998826;28;20308;-72
2022/05/13 01:28:26;;;;;;;2.45;2.25;;;15.70;99.90;;;;;;4990825;28;20225;-72
2022/05/13 01:30:56;;;;;;;3.83;2.13;;;15.60;99.90;;;;;;4994857;28;20237;-72
2022/05/13 01:33:24;;;;;;;4.68;2.60;;;15.70;99.90;;;;;;4994931;28;20197;-71
2022/05/13 01:35:55;;;;;;;2.03;1.83;;;15.60;99.90;;;;;;4998233;28;20743;-72
2022/05/13 01:38:26;;;;;;;3.67;2.53;;;15.70;99.90;;;;;;4994590;28;20288;-73
2022/05/13 01:40:54;;;;;;;3.78;2.35;;;15.60;99.90;;;;;;4991905;28;20570;-71
2022/05/13 01:43:23;;;;;;;2.55;2.35;;;15.60;99.90;;;;;;4993980;28;20201;-71
2022/05/13 01:45:51;;;;;;;5.65;3.05;;;15.60;99.90;;;;;;4992364;28;20206;-71
2022/05/13 01:48:20;;;;;;;2.80;2.33;;;15.60;99.90;;;;;;4994216;28;20265;-73
2022/05/13 01:50:48;;;;;;;2.30;2.10;;;15.60;99.90;;;;;;4986489;28;20206;-71
2022/05/13 01:53:16;;;;;;;2.53;2.28;;;15.50;99.90;;;;;;4989264;28;20640;-71
2022/05/13 01:55:45;;;;;;;3.45;2.28;;;15.40;99.90;;;;;;4992739;28;20222;-72
2022/05/13 01:58:15;;;;;;;6.88;2.55;;;15.30;99.90;;;;;;4995311;28;20248;-70
2022/05/13 02:00:45;;;;;;;3.90;2.15;;;15.10;99.90;;;;;;4989406;28;20309;-71
2022/05/13 02:05:59;;;;;;;3.70;1.90;;;15.00;99.90;;;;;;5000128;28;20260;-71
2022/05/13 02:08:27;;;;;;;3.45;2.25;;;14.90;99.90;;;;;;4991676;28;20782;-71
2022/05/13 02:10:57;;;;;;;3.58;2.20;;;14.80;99.90;;;;;;4995729;28;20264;-71
2022/05/13 02:13:25;;;;;;;3.65;2.08;;;14.80;99.90;;;;;;4994035;28;20260;-69
2022/05/13 02:15:53;;;;;;;2.45;2.10;;;14.70;99.90;;;;;;4997347;28;20242;-71
2022/05/13 02:18:22;;;;;;;3.95;2.20;;;14.70;99.90;;;;;;4992035;28;20205;-71
2022/05/13 02:20:49;;;;;;;3.38;2.60;;;14.70;99.90;;;;;;4980442;28;20703;-71
2022/05/13 02:23:20;;;;;;;4.03;2.10;;;14.60;99.90;;;;;;4988431;28;20234;-70
2022/05/13 02:25:48;;;;;;;5.13;2.60;;;14.50;99.90;;;;;;4993989;28;20286;-71
2022/05/13 02:28:18;;;;;;;5.45;2.20;;;14.50;99.90;;;;;;4996062;28;20201;-73
2022/05/13 02:30:46;;;;;;;4.75;2.15;;;14.40;99.90;;;;;;4997628;28;20205;-70
2022/05/13 02:33:14;;;;;;;2.45;1.98;;;14.40;99.90;;;;;;4998082;28;20212;-70
2022/05/13 02:35:42;;;;;;;4.30;2.40;;;14.40;99.90;;;;;;5000141;28;20269;-71
2022/05/13 02:38:13;;;;;;;4.82;2.10;;;14.40;99.90;;;;;;4993293;28;20699;-70
2022/05/13 02:43:29;;;;;;;2.67;2.10;;;14.40;99.90;;;;;;5017909;23;20320;-63
2022/05/13 02:45:57;;;;;;;4.30;2.90;;;14.40;99.90;;;;;;4970495;28;20864;-62
2022/05/13 02:48:25;;;;;;;3.75;2.50;;;14.40;99.90;;;;;;4972726;28;20257;-61
2022/05/13 02:50:53;;;;;;;4.25;1.98;;;14.40;99.90;;;;;;4971621;28;20302;-61
2022/05/13 02:53:22;;;;;;;6.82;2.55;;;14.40;99.90;;;;;;4977378;28;20317;-62
2022/05/13 02:55:50;;;;;;;4.60;2.30;;;14.30;99.90;;;;;;4972148;28;20328;-61
2022/05/13 02:58:17;;;;;;;7.10;2.30;;;14.30;99.90;;;;;;4979535;28;20226;-62
2022/05/13 03:00:47;;;;;;;5.30;1.70;;;14.30;99.90;;;;;;4980579;28;20289;-63
2022/05/13 03:03:15;;;;;;;3.22;2.22;;;14.30;99.90;;;;;;4969573;28;20232;-60
2022/05/13 03:05:43;;;;;;;4.63;2.40;;;14.20;99.90;;;;;;4971653;28;20741;-62
2022/05/13 03:08:11;;;;;;;3.55;2.30;;;14.20;99.90;;;;;;4972815;28;20229;-63
2022/05/13 03:10:40;;;;;;;3.05;2.55;;;14.20;99.90;;;;;;4975828;28;20289;-63
2022/05/13 03:13:09;;;;;;;5.55;2.85;;;14.20;99.90;;;;;;4971392;28;20340;-62
2022/05/13 03:15:37;;;;;;;2.92;2.10;;;14.20;99.90;;;;;;4979934;28;20206;-63
2022/05/13 03:18:07;;;;;;;3.17;2.00;;;14.20;99.90;;;;;;4971207;28;20670;-63
2022/05/13 03:20:35;;;;;;;3.25;2.33;;;14.10;99.90;;;;;;4970598;28;20206;-62
2022/05/13 03:23:04;;;;;;;4.38;2.20;;;14.20;99.90;;;;;;4973179;28;20328;-61
2022/05/13 03:25:32;;;;;;;6.10;2.58;;;14.10;99.90;;;;;;4976907;28;20835;-62
2022/05/13 03:28:00;;;;;;;7.38;3.08;;;14.10;99.90;;;;;;4970623;28;20285;-62
2022/05/13 03:30:28;;;;;;;6.47;2.08;;;14.10;99.90;;;;;;4971307;28;20286;-62
2022/05/13 03:32:56;;;;;;;2.75;2.13;;;14.10;99.90;;;;;;4969520;28;20206;-64
2022/05/13 03:35:26;;;;;;;3.10;2.05;;;14.10;99.90;;;;;;4971779;28;20229;-64
2022/05/13 03:37:54;;;;;;;3.67;2.15;;;14.20;99.90;;;;;;4974657;28;21289;-63
2022/05/13 03:40:22;;;;;;;5.72;2.63;;;14.20;99.90;;;;;;4986704;28;20285;-64
2022/05/13 03:42:50;;;;;;;5.80;2.00;;;14.20;99.90;;;;;;4999000;28;20209;-64
2022/05/13 03:45:19;;;;;;;3.90;2.33;;;14.20;99.90;;;;;;4993066;28;20261;-64
2022/05/13 03:47:49;;;;;;;2.95;1.75;;;14.20;99.90;;;;;;4979049;28;20198;-63
2022/05/13 03:50:17;;;;;;;2.20;1.63;;;14.20;99.90;;;;;;4972671;28;20694;-62
2022/05/13 03:52:47;;;;;;;4.93;1.90;;;14.20;99.90;;;;;;4973098;28;20246;-62
2022/05/13 03:55:14;;;;;;;3.75;1.45;;;14.10;99.90;;;;;;4987386;28;20289;-61
2022/05/13 03:57:42;;;;;;;4.55;1.88;;;14.00;99.90;;;;;;4976779;28;21185;-63
2022/05/13 04:00:11;;;;;;;3.35;2.03;;;13.90;99.90;;;;;;4970698;28;20367;-62
2022/05/13 04:02:40;;;;;;;3.13;1.60;;;13.90;99.90;;;;;;4976284;28;20698;-62
2022/05/13 04:10:48;;;;;;;2.15;1.45;;;13.90;99.90;;;;;;4976576;28;20194;-61
2022/05/13 04:16:08;;;;;;;2.28;1.00;;;14.00;99.90;;;;;;4979811;28;21196;-62
2022/05/13 04:18:38;;;;;;;3.45;1.73;;;14.10;99.90;;;;;;4977077;28;20335;-61
2022/05/13 04:21:10;;;;;;;10.23;2.10;;;14.20;99.90;;;;;;4978919;28;21081;-62
2022/05/13 04:23:42;;;;;;;3.30;1.35;;;14.20;99.90;;;;;;4978729;28;20335;-61
2022/05/13 04:26:12;;;;;;;4.47;1.63;;;14.30;99.90;;;;;;4978709;28;20233;-62
2022/05/13 04:28:40;;;;;;;4.15;2.45;;;14.30;99.90;;;;;;4977605;28;20233;-61
2022/05/13 04:31:09;;;;;;;3.40;1.58;;;14.40;99.90;;;;;;4978769;28;20308;-62
2022/05/13 04:33:37;;;;;;;5.85;1.70;;;14.40;99.90;;;;;;4979102;28;20761;-61
2022/05/13 04:36:06;;;;;;;3.38;2.03;;;14.50;99.90;;;;;;4977912;28;20775;-61
2022/05/13 04:38:35;;;;;;;4.55;1.80;;;14.40;99.90;;;;;;4977294;28;20346;-61
2022/05/13 04:43:47;;;;;;;2.83;1.70;;;14.40;99.90;;;;;;4977025;28;20265;-62
2022/05/13 04:46:14;;;;;;;3.25;1.75;;;14.40;99.90;;;;;;4977937;28;20210;-61
2022/05/13 04:48:42;;;;;;;6.07;1.50;;;14.40;99.90;;;;;;4977166;28;21037;-62
2022/05/13 04:51:11;;;;;;;3.88;2.05;;;14.40;99.90;;;;;;4978922;28;20773;-61
2022/05/13 04:53:40;;;;;;;2.42;2.15;;;14.40;99.90;;;;;;4977969;28;20235;-60
2022/05/13 04:56:10;;;;;;;7.38;1.83;;;14.40;99.90;;;;;;4979696;28;20245;-62
2022/05/13 04:58:39;;;;;;;2.85;1.90;;;14.40;99.90;;;;;;4976813;28;20377;-62
2022/05/13 05:01:08;;;;;;;4.45;2.35;;;14.40;99.90;;;;;;4978517;28;20300;-61
2022/05/13 05:03:37;;;;;;;4.95;2.20;;;14.40;99.90;;;;;;4977250;28;20531;-62
2022/05/13 05:06:05;;;;;;;2.67;1.60;;;14.40;99.90;;;;;;4978825;28;20241;-61
2022/05/13 05:08:34;;;;;;;3.15;1.58;;;14.30;99.90;;;;;;4976078;28;20241;-60
2022/05/13 05:11:03;;;;;;;5.13;1.83;;;14.40;99.90;;;;;;4976757;28;20237;-62
2022/05/13 05:13:34;;;;;;;4.00;1.60;;;14.40;99.90;;;;;;4973865;28;20312;-62
2022/05/13 05:16:03;;;;;;;2.47;1.40;;;14.40;99.90;;;;;;4977780;28;20206;-61
2022/05/13 05:18:31;;;;;;;5.00;1.55;;;14.40;99.90;;;;;;4976583;28;21039;-63
2022/05/13 05:20:59;;;;;;;5.30;2.28;;;14.50;99.90;;;;;;4977669;28;21449;-63
2022/05/13 05:23:30;;;;;;;5.75;1.95;;;14.60;99.90;;;;;;4976799;28;20258;-62
2022/05/13 05:25:58;;;;;;;8.27;2.17;;;14.70;99.90;;;;;;4977226;28;20241;-61
2022/05/13 05:28:28;;;;;;;9.30;2.28;;;14.80;99.90;;;;;;4975590;28;20297;-62
2022/05/13 05:31:00;;;;;;;4.10;1.55;;;14.80;99.90;;;;;;4976312;28;20214;-62
2022/05/13 05:33:28;;;;;;;5.40;1.88;;;14.90;99.90;;;;;;4972729;28;20224;-62
2022/05/13 05:35:56;;;;;;;8.88;1.75;;;14.90;99.90;;;;;;4975436;28;20640;-62
2022/05/13 05:38:25;;;;;;;4.78;1.45;;;15.00;99.90;;;;;;4973018;28;22140;-62
2022/05/13 05:40:53;;;;;;;7.25;1.52;;;15.20;99.90;;;;;;4975033;28;20252;-62
2022/05/13 05:43:21;;;;;;;4.10;1.65;;;15.40;99.90;;;;;;4974351;28;20265;-63
2022/05/13 05:45:49;;;;;;;5.03;1.55;;;15.40;99.90;;;;;;4976402;28;20217;-62
2022/05/13 05:48:22;;;;;;;5.22;2.00;;;15.50;99.90;;;;;;4975440;28;20202;-62
2022/05/13 05:50:51;;;;;;;3.75;1.80;;;15.50;99.90;;;;;;4977075;28;20202;-62
2022/05/13 05:57:13;;;;;;;2.50;1.60;;;15.50;99.90;;;;;;4974767;28;21255;-62
2022/05/13 05:58:59;;;;;;;6.88;1.85;;;15.60;99.90;;;;;;4997275;28;20310;-63
2022/05/13 06:01:27;;;;;;;4.03;1.80;;;15.70;99.90;;;;;;4989723;28;20307;-63
2022/05/13 06:03:56;;;;;;;5.63;1.70;;;15.90;99.90;;;;;;4987368;28;20213;-63
2022/05/13 06:06:24;;;;;;;2.75;1.40;;;16.00;99.90;;;;;;4988071;28;20202;-64
2022/05/13 06:08:54;;;;;;;5.72;1.40;;;16.00;99.90;;;;;;4994548;28;20244;-63
2022/05/13 06:11:23;;;;;;;4.95;1.48;;;16.10;99.90;;;;;;4994924;28;20214;-65
2022/05/13 06:13:53;;;;;;;6.30;1.80;;;16.10;99.90;;;;;;4993955;28;20356;-63
2022/05/13 06:16:22;;;;;;;5.80;1.50;;;16.30;99.90;;;;;;4994565;28;20206;-64
2022/05/13 06:18:50;;;;;;;5.72;1.58;;;16.30;99.90;;;;;;4996012;28;20678;-63
2022/05/13 06:21:20;;;;;;;3.70;1.20;;;16.30;99.90;;;;;;4993101;28;20233;-63
2022/05/13 06:23:47;;;;;;;1.98;1.20;;;16.30;99.90;;;;;;4996993;28;20228;-64
2022/05/13 06:26:15;;;;;;;3.58;1.98;;;16.40;99.90;;;;;;4994474;28;20209;-64
2022/05/13 06:28:43;;;;;;;7.18;1.30;;;16.60;99.90;;;;;;4994520;28;20202;-63
2022/05/13 06:31:11;;;;;;;4.55;1.45;;;16.70;99.90;;;;;;4994612;28;20252;-64
2022/05/13 06:33:40;;;;;;;3.22;1.80;;;16.70;99.90;;;;;;4993423;28;20218;-63
2022/05/13 06:36:08;;;;;;;4.15;1.52;;;16.90;99.90;;;;;;4994414;28;20233;-63
2022/05/13 06:38:38;;;;;;;3.72;1.60;;;17.10;99.70;;;;;;4994319;28;20217;-63
2022/05/13 06:41:06;;;;;;;3.65;1.52;;;17.20;99.80;;;;;;4994465;28;20214;-63
2022/05/13 06:43:34;;;;;;;3.72;1.88;;;17.30;99.40;;;;;;4993268;28;20278;-63
2022/05/13 06:46:02;;;;;;;4.32;1.67;;;17.40;99.80;;;;;;4994795;28;20261;-64
2022/05/13 06:48:30;;;;;;;4.55;1.55;;;17.40;99.20;;;;;;4994110;28;20217;-63
2022/05/13 06:50:58;;;;;;;4.07;1.40;;;17.60;98.70;;;;;;4993874;28;20226;-62
2022/05/13 06:53:26;;;;;;;4.78;1.38;;;17.60;98.70;;;;;;4992993;28;20677;-63
2022/05/13 06:55:55;;;;;;;6.18;1.85;;;17.60;99.10;;;;;;4993892;28;20206;-64
2022/05/13 06:58:23;;;;;;;5.88;1.50;;;17.80;99.40;;;;;;4987570;28;20197;-63
2022/05/13 07:00:51;;;;;;;8.88;1.58;;;18.00;98.00;;;;;;4987457;28;20205;-63
2022/05/13 07:03:20;;;;;;;2.63;1.38;;;18.10;98.40;;;;;;4986844;28;20662;-63
2022/05/13 07:05:48;;;;;;;2.85;1.20;;;18.20;97.80;;;;;;4987552;28;20671;-64
2022/05/13 07:08:16;;;;;;;5.60;1.70;;;18.10;98.20;;;;;;4993993;28;20268;-63
2022/05/13 07:10:45;;;;;;;6.00;2.08;;;18.20;98.40;;;;;;4987833;28;20345;-63
2022/05/13 07:13:15;;;;;;;4.70;1.77;;;18.30;97.60;;;;;;4986521;28;20264;-63
2022/05/13 07:15:45;;;;;;;4.68;1.63;;;18.40;97.30;;;;;;4988304;28;20206;-64
2022/05/13 07:18:13;;;;;;;5.38;1.63;;;18.40;96.70;;;;;;4993130;28;20229;-63
2022/05/13 07:20:41;;;;;;;6.90;1.15;;;18.50;96.80;;;;;;4993379;28;20284;-63
2022/05/13 07:23:09;;;;;;;3.55;1.65;;;18.60;96.80;;;;;;4996041;28;20249;-63
2022/05/13 07:25:37;;;;;;;3.40;1.55;;;18.60;95.50;;;;;;4993886;28;20202;-64
2022/05/13 07:28:05;;;;;;;2.17;1.42;;;18.60;95.10;;;;;;4993183;28;20306;-63
2022/05/13 07:30:34;;;;;;;6.07;1.63;;;18.70;95.90;;;;;;4993427;28;20206;-63
2022/05/13 07:33:02;;;;;;;2.47;0.90;;;18.70;94.30;;;;;;4992348;28;20209;-63
2022/05/13 07:35:30;;;;;;;5.30;1.48;;;18.70;94.20;;;;;;4993222;28;20659;-63
2022/05/13 07:37:58;;;;;;;2.90;1.33;;;18.60;93.90;;;;;;4993193;28;20236;-63
2022/05/13 07:43:18;;;;;;;4.10;0.95;;;18.80;93.80;;;;;;4976905;28;20276;-63
2022/05/13 07:45:47;;;;;;;5.55;1.30;;;18.90;93.20;;;;;;4993203;28;20645;-63
2022/05/13 07:48:15;;;;;;;2.80;1.45;;;18.90;92.40;;;;;;4993104;28;20726;-64
2022/05/13 07:50:43;;;;;;;3.13;1.38;;;18.90;93.10;;;;;;4992521;28;20212;-63
2022/05/13 07:53:11;;;;;;;4.63;1.00;;;19.00;93.00;;;;;;4991856;28;20222;-63
2022/05/13 07:55:38;;;;;;;2.75;1.17;;;19.00;92.40;;;;;;4992797;28;20210;-63
2022/05/13 07:58:06;;;;;;;4.05;1.20;;;19.10;92.80;;;;;;4992901;28;20484;-64
2022/05/13 08:00:36;;;;;;;3.63;1.50;;;19.10;92.40;;;;;;4992850;28;20256;-64
2022/05/13 08:03:08;;;;;;;3.50;1.25;;;19.10;92.70;;;;;;4991667;28;20296;-64
2022/05/13 08:05:40;;;;;;;2.80;1.35;;;19.20;92.70;;;;;;4992883;28;20206;-63
2022/05/13 08:08:11;;;;;;;4.03;1.23;;;19.00;92.60;;;;;;4992706;28;20694;-63
2022/05/13 08:10:41;;;;;;;3.65;1.23;;;19.00;92.50;;;;;;4992961;28;20202;-63
2022/05/13 08:13:09;;;;;;;5.95;1.40;;;19.00;92.20;;;;;;4991695;28;20287;-63
2022/05/13 08:15:36;;;;;;;2.47;0.98;;;19.10;92.20;;;;;;4992982;28;20650;-63
2022/05/13 08:18:06;;;;;;;3.75;1.30;;;19.30;92.70;;;;;;4992802;28;20237;-64
2022/05/13 08:20:41;;;;;;;2.40;1.35;;;19.40;92.40;;;;;;4986843;28;20226;-63
2022/05/13 08:23:10;;;;;;;2.50;1.17;;;19.50;91.70;;;;;;4994634;28;20566;-64
2022/05/13 08:25:39;;;;;;;3.05;1.27;;;19.70;90.60;;;;;;4992516;28;20663;-62
2022/05/13 08:28:08;;;;;;;2.25;0.98;;;19.40;90.20;;;;;;4992013;28;20637;-63
2022/05/13 08:30:37;;;;;;;2.47;1.10;;;19.40;91.00;;;;;;4991686;28;20705;-63
2022/05/13 08:33:08;;;;;;;2.55;1.20;;;19.60;90.30;;;;;;4991425;28;20209;-64
2022/05/13 08:35:37;;;;;;;2.13;1.00;;;19.80;90.20;;;;;;4992245;28;20244;-63
2022/05/13 08:38:06;;;;;;;3.50;1.05;;;20.20;89.70;;;;;;4992113;28;20683;-63
2022/05/13 08:40:53;;;;;;;1.95;1.10;;;20.30;89.80;;;;;;4992031;28;20225;-64
2022/05/13 08:43:24;;;;;;;5.40;1.80;;;20.50;90.60;;;;;;5016700;23;20269;-64
2022/05/13 08:45:55;;;;;;;4.40;1.40;;;20.70;87.70;;;;;;5022157;28;20216;-64
2022/05/13 08:48:32;;;;;;;3.60;1.30;;;20.70;86.30;;;;;;5030658;28;20291;-64
2022/05/13 08:51:10;;;;;;;2.78;1.00;;;20.80;86.60;;;;;;5024780;28;20243;-64
2022/05/13 08:53:43;;;;;;;2.15;1.10;;;21.00;85.80;;;;;;5025398;28;20217;-64
2022/05/13 08:56:20;;;;;;;3.17;1.15;;;21.00;85.40;;;;;;5030656;28;20212;-64
2022/05/13 08:58:55;;;;;;;2.45;1.10;;;21.30;85.30;;;;;;5030839;28;20200;-64
2022/05/13 09:01:27;;;;;;;2.67;1.25;;;21.70;83.20;;;;;;5030633;28;20220;-64
2022/05/13 09:04:02;;;;;;;2.05;1.00;;;21.80;83.10;;;;;;5029896;28;20303;-64
2022/05/13 09:06:37;;;;;;;1.70;0.98;;;22.20;84.10;;;;;;5030731;28;20283;-64
2022/05/13 09:09:08;;;;;;;2.80;1.67;;;22.30;82.80;;;;;;5030706;28;20208;-64
2022/05/13 09:11:41;;;;;;;3.42;1.48;;;22.30;81.00;;;;;;5030736;28;20295;-64
2022/05/13 09:14:15;;;;;;;5.85;1.20;;;22.40;80.60;;;;;;5029520;28;20785;-64
2022/05/13 09:16:51;;;;;;;5.20;1.48;;;22.40;80.70;;;;;;5030437;28;20669;-64
2022/05/13 09:19:31;;;;;;;4.18;1.23;;;22.50;81.90;;;;;;5030529;28;20266;-64
2022/05/13 09:21:59;;;;;;;3.75;1.35;;;22.40;82.60;;;;;;5013493;28;20259;-63
2022/05/13 09:24:27;;;;;;;2.42;1.15;;;22.60;80.00;;;;;;5014315;28;20307;-64
2022/05/13 09:26:55;;;;;;;3.38;1.40;;;22.40;81.00;;;;;;5011575;28;20205;-64
2022/05/13 09:29:23;;;;;;;3.17;1.40;;;22.50;82.60;;;;;;5011349;28;20292;-64
2022/05/13 09:32:04;;;;;;;4.70;1.40;;;22.60;81.60;;;;;;5011620;28;20197;-64
2022/05/13 09:34:39;;;;;;;6.50;1.52;;;22.50;80.40;;;;;;5005171;28;20294;-65
2022/05/13 09:37:11;;;;;;;5.70;1.50;;;22.60;83.40;;;;;;5011434;28;20215;-64
2022/05/13 09:39:43;;;;;;;2.65;1.48;;;22.60;83.80;;;;;;5011244;28;20583;-64
2022/05/13 09:42:23;;;;;;;6.30;2.03;;;22.60;83.60;;;;;;5014969;28;20263;-64
2022/05/13 09:44:52;;;;;;;3.90;1.63;;;22.90;81.50;;;;;;5015213;28;20685;-64
2022/05/13 09:47:29;;;;;;;8.35;1.67;;;23.00;81.90;;;;;;5015353;28;20267;-64
2022/05/13 09:50:24;;;;;;;2.67;1.60;;;23.20;84.40;;;;;;5019508;28;20189;-64
2022/05/13 09:52:53;;;;;;;3.63;1.60;;;23.30;81.50;;;;;;5014293;28;20201;-64
2022/05/13 09:55:26;;;;;;;3.10;1.40;;;23.30;79.90;;;;;;5019239;28;20311;-64
2022/05/13 09:57:55;;;;;;;2.88;1.58;;;23.70;80.60;;;;;;5032895;28;20228;-65
2022/05/13 10:00:29;;;;;;;4.82;1.95;;;23.60;79.80;;;;;;5033952;28;20259;-64
2022/05/13 10:03:09;;;;;;;2.80;1.20;;;23.40;79.50;;;;;;5033120;28;20639;-64
2022/05/13 10:05:38;;;;;;;3.90;1.30;;;23.30;80.40;;;;;;5033982;28;20707;-64
2022/05/13 10:08:09;;;;;;;5.07;1.30;;;23.60;81.00;;;;;;5033534;28;20303;-65
2022/05/13 10:16:17;;;;;;;3.33;1.20;;;23.70;77.90;;;;;;5033904;28;20291;-64
2022/05/13 10:18:50;;;;;;;3.42;1.63;;;23.20;78.00;;;;;;5033933;28;20205;-64
2022/05/13 10:21:24;;;;;;;3.40;1.42;;;23.20;81.00;;;;;;5029369;28;20312;-64
2022/05/13 10:23:58;;;;;;;4.70;1.60;;;23.30;81.30;;;;;;5025764;28;20351;-64
2022/05/13 10:26:30;;;;;;;7.00;1.73;;;23.60;82.30;;;;;;5030478;28;20201;-64
2022/05/13 10:29:05;;;;;;;2.42;1.20;;;23.80;79.10;;;;;;5033966;28;20291;-64
2022/05/13 10:31:38;;;;;;;4.15;1.35;;;23.80;78.10;;;;;;5033895;28;20250;-64
2022/05/13 10:34:13;;;;;;;4.75;1.63;;;23.60;77.90;;;;;;5032391;28;20599;-64
2022/05/13 10:36:45;;;;;;;2.30;1.40;;;23.40;78.20;;;;;;5007365;28;20209;-64
2022/05/13 10:39:22;;;;;;;2.75;1.60;;;23.40;79.40;;;;;;5008430;28;20248;-65
2022/05/13 10:41:53;;;;;;;3.00;1.50;;;23.60;78.70;;;;;;5014411;28;20278;-64
2022/05/13 10:44:32;;;;;;;8.30;1.80;;;24.00;80.00;;;;;;5013250;28;20273;-64
2022/05/13 10:47:02;;;;;;;3.08;1.00;;;24.30;81.00;;;;;;5013829;28;20251;-65
2022/05/13 10:49:38;;;;;;;4.22;1.63;;;24.70;78.30;;;;;;5014264;28;20197;-64
2022/05/13 10:52:15;;;;;;;4.53;1.35;;;24.60;76.50;;;;;;5012074;28;20744;-64
2022/05/13 10:54:50;;;;;;;4.60;1.50;;;24.60;77.90;;;;;;5025228;28;20319;-64
2022/05/13 10:57:33;;;;;;;4.95;1.40;;;24.40;76.70;;;;;;5007954;28;20215;-65
2022/05/13 11:00:12;;;;;;;5.40;1.70;;;24.60;75.40;;;;;;5013934;28;20224;-64
2022/05/13 11:03:06;;;;;;;4.18;1.77;;;24.30;77.20;;;;;;5013169;28;20260;-65
2022/05/13 11:05:40;;;;;;;2.63;1.05;;;24.70;77.50;;;;;;5013982;28;20225;-65
2022/05/13 11:08:23;;;;;;;3.75;1.58;;;25.10;78.10;;;;;;5013204;28;20255;-66
2022/05/13 11:10:59;;;;;;;3.95;1.67;;;25.00;76.50;;;;;;5014008;28;20224;-64
2022/05/13 11:13:41;;;;;;;5.10;1.20;;;25.10;74.60;;;;;;5012749;28;20274;-64
2022/05/13 11:16:17;;;;;;;3.50;1.13;;;25.00;74.10;;;;;;5007175;28;20237;-64
2022/05/13 11:18:51;;;;;;;5.35;1.52;;;25.20;74.70;;;;;;5013480;28;20736;-65
2022/05/13 11:21:30;;;;;;;4.35;1.20;;;24.80;76.60;;;;;;5013292;28;20263;-65
2022/05/13 11:26:58;;;;;;;4.10;1.30;;;24.50;75.40;;;;;;5007599;28;20205;-64
2022/05/13 11:29:31;;;;;;;3.30;1.38;;;24.80;76.20;;;;;;5013214;28;20240;-64
2022/05/13 11:32:18;;;;;;;3.28;1.45;;;25.10;78.20;;;;;;5013231;28;20190;-65
2022/05/13 11:34:59;;;;;;;5.38;1.98;;;25.20;76.50;;;;;;5013504;28;20225;-64
2022/05/13 11:37:32;;;;;;;2.20;1.20;;;25.70;76.00;;;;;;5013418;28;20205;-65
2022/05/13 11:40:16;;;;;;;2.72;1.60;;;26.00;77.00;;;;;;5007096;28;20209;-65
2022/05/13 11:43:19;;;;;;;4.43;2.17;;;26.50;74.40;;;;;;5011797;28;20253;-64
2022/05/13 11:46:18;;;;;;;3.15;1.25;;;26.20;72.10;;;;;;5013170;28;20670;-65
2022/05/13 11:48:49;;;;;;;6.00;1.38;;;26.00;71.80;;;;;;5012636;28;20628;-65
2022/05/13 11:51:20;;;;;;;3.10;1.50;;;26.10;76.30;;;;;;5012790;28;20198;-64
2022/05/13 11:53:51;;;;;;;3.22;1.58;;;26.10;72.30;;;;;;5018215;28;20224;-65
2022/05/13 11:56:35;;;;;;;1.90;1.17;;;25.80;73.60;;;;;;5031224;28;20235;-64
2022/05/13 11:59:05;;;;;;;7.43;1.52;;;25.80;75.70;;;;;;5030200;28;20290;-64
2022/05/13 12:02:01;;;;;;;2.55;1.33;;;26.10;73.20;;;;;;5031533;28;20302;-64
2022/05/13 12:04:36;;;;;;;3.58;1.35;;;26.00;73.10;;;;;;5031503;28;20275;-65
2022/05/13 12:07:28;;;;;;;2.97;1.30;;;26.10;72.70;;;;;;5006106;28;20620;-64
2022/05/13 12:10:00;;;;;;;1.88;0.90;;;26.50;74.20;;;;;;5009818;28;20213;-64
2022/05/13 12:12:54;;;;;;;6.65;1.60;;;26.70;73.60;;;;;;5012084;28;20284;-64
2022/05/13 12:15:35;;;;;;;4.20;1.50;;;27.30;72.50;;;;;;5012238;28;20259;-64
2022/05/13 12:18:12;;;;;;;4.65;1.85;;;26.90;72.80;;;;;;5011954;28;20204;-65
2022/05/13 12:20:49;;;;;;;2.97;1.10;;;27.40;70.30;;;;;;5012642;28;20666;-64
2022/05/13 12:23:23;;;;;;;3.35;1.65;;;27.10;70.70;;;;;;5020348;28;20631;-64
2022/05/13 12:25:55;;;;;;;4.00;1.23;;;26.60;70.60;;;;;;5025050;28;20231;-64
2022/05/13 12:28:30;;;;;;;4.20;1.30;;;26.50;70.10;;;;;;5030523;28;20204;-64
2022/05/13 12:30:58;;;;;;;3.75;1.20;;;26.40;71.00;;;;;;5031292;28;20204;-64
2022/05/13 12:33:38;;;;;;;2.75;1.30;;;26.80;70.60;;;;;;5030449;28;20224;-65
2022/05/13 12:39:21;;;;;;;3.70;1.50;;;26.60;71.60;;;;;;5030907;28;20617;-64
2022/05/13 12:42:09;;;;;;;2.90;1.00;;;26.50;70.60;;;;;;5031279;28;20216;-66
2022/05/13 12:44:43;;;;;;;3.53;1.40;;;26.80;70.20;;;;;;5030721;28;20241;-64
2022/05/13 12:47:21;;;;;;;3.20;1.35;;;26.80;71.90;;;;;;5030188;28;20291;-64
2022/05/13 12:49:58;;;;;;;6.65;1.40;;;26.90;70.90;;;;;;5005861;28;20228;-65
2022/05/13 12:52:38;;;;;;;2.67;1.17;;;27.10;72.80;;;;;;5007465;28;20233;-64
2022/05/13 12:55:10;;;;;;;3.92;1.30;;;27.50;69.90;;;;;;5016966;28;20251;-65
2022/05/13 12:57:41;;;;;;;3.50;1.25;;;28.00;68.00;;;;;;5030550;28;20204;-64
2022/05/13 13:00:13;;;;;;;1.48;1.10;;;28.00;69.50;;;;;;5030807;28;20274;-65
2022/05/13 13:02:43;;;;;;;2.65;1.40;;;28.10;71.20;;;;;;5030115;28;20279;-64
2022/05/13 13:05:18;;;;;;;2.47;1.10;;;28.00;68.60;;;;;;5030606;28;20271;-64
2022/05/13 13:07:46;;;;;;;5.13;1.67;;;27.50;69.30;;;;;;5029957;28;20242;-64
2022/05/13 13:10:18;;;;;;;2.70;1.42;;;26.80;70.10;;;;;;5029854;28;20296;-64
2022/05/13 13:12:57;;;;;;;6.30;1.30;;;26.60;69.90;;;;;;5030011;28;20219;-64
2022/05/13 13:15:35;;;;;;;7.03;1.20;;;26.80;70.10;;;;;;5030025;28;20223;-64
2022/05/13 13:18:07;;;;;;;1.58;1.20;;;26.90;68.90;;;;;;5030451;28;20675;-65
2022/05/13 13:20:49;;;;;;;2.08;1.15;;;26.90;70.30;;;;;;5030008;28;20251;-65
2022/05/13 13:23:19;;;;;;;2.33;1.00;;;27.20;70.20;;;;;;5020099;28;20247;-64
2022/05/13 13:25:51;;;;;;;2.78;1.15;;;27.30;69.10;;;;;;5025024;28;20262;-65
2022/05/13 13:28:26;;;;;;;2.25;1.20;;;27.70;68.80;;;;;;5030269;28;20231;-65
2022/05/13 13:30:58;;;;;;;3.60;1.52;;;28.00;68.60;;;;;;5004978;28;20612;-64
2022/05/13 13:33:28;;;;;;;0.93;0.82;;;27.90;68.90;;;;;;5005441;28;20288;-64
2022/05/13 13:36:06;;;;;;;3.08;1.13;;;28.20;68.90;;;;;;5011366;28;20666;-64
2022/05/13 13:38:35;;;;;;;6.15;1.10;;;28.50;69.20;;;;;;5011545;28;20557;-64
2022/05/13 13:41:05;;;;;;;3.58;0.98;;;28.70;68.40;;;;;;5011333;28;20613;-65
2022/05/13 13:43:34;;;;;;;1.73;0.95;;;28.90;67.40;;;;;;5009704;28;20220;-65